Latest Coastal Weather Observations for Cape Bruny AWS

IDT60701

Issued at 4:12 pm EST Tuesday 16 August 2022 (issued every 10 minutes, with the page automatically refreshed every 10 minutes)

About coastal observations | Map of coastal stations | Coastal observations for TAS | Marine services | Other Formats
Station Details ID: 094198 Name: CAPE BRUNY (CAPE BRUNY) Lat: -43.49 Lon: 147.14 Height: 59.7 m
Data from the previous 72 hours. | See also: Recent months at Cape Bruny AWS
Date/Time
EST
Wind Sea
Height
m
Swell Vis
km
Cloud Weather Temp
°C
Press
MSL
hPa
Rain since
9am
mm
Dir  Spd
kts
Gust
kts
Height
m
Period
s
Dir
16/04:00pm WSW 18 24 - - - - - - - 10.6 1009.6 1.2
16/03:30pm SW 17 27 - - - - - - - 10.3 1009.4 1.0
16/03:29pm SW 17 27 - - - - - - - 10.4 1009.4 1.0
16/03:00pm WSW 17 22 - - - - - - Recent precip. 10.7 1008.7 1.0
16/02:55pm WSW 17 27 - - - - - - - 10.6 1008.7 1.0
16/02:30pm WSW 20 27 - - - - - - - 11.3 1008.5 0.8
16/02:00pm WSW 22 30 - - - - - - - 11.3 1008.0 0.8
16/01:30pm WSW 21 32 - - - - - - - 11.2 1007.6 0.8
16/01:13pm WSW 23 34 - - - - - - - 10.9 1007.4 0.8
16/01:00pm WSW 23 32 - - - - - - - 10.9 1007.4 0.8
16/12:30pm WSW 21 30 - - - - - - - 11.3 1006.8 0.8
16/12:00pm WSW 19 26 - - - - - - Recent precip. 11.2 1006.6 0.8
16/11:30am WSW 17 23 - - - - - - - 11.3 1006.4 0.8
16/11:00am WSW 16 23 - - - - - - - 10.9 1006.3 0.6
16/10:30am SW 17 23 - - - - - - - 10.8 1005.9 0.4
16/10:00am SW 18 25 - - - - - - - 11.1 1005.4 0.4
16/09:30am WSW 16 23 - - - - - - - 10.9 1005.1 0.2
16/09:00am WSW 18 24 - - - - - - Recent precip. 10.9 1004.7 7.4
16/08:30am WSW 16 22 - - - - - - - 10.9 1004.1 7.2
16/08:00am SW 17 23 - - - - - - - 10.5 1003.7 7.2
16/07:37am WSW 16 26 - - - - - - - 10.9 1003.3 5.2
16/07:30am WSW 16 20 - - - - - - - 11.0 1003.0 4.6
16/07:00am WSW 14 21 - - - - - - - 10.9 1002.4 4.4
16/06:30am WSW 12 16 - - - - - - - 11.0 1001.9 4.4
16/06:00am SW 13 19 - - - - - - - 10.8 1001.4 4.2
16/05:30am SW 12 18 - - - - - - - 10.5 1001.0 4.2
16/05:00am WSW 11 15 - - - - - - - 10.4 1000.5 4.2
16/04:30am WSW 13 16 - - - - - - - 10.4 999.9 4.2
16/04:00am WSW 15 19 - - - - - - - 10.4 999.6 3.4
16/03:30am WSW 14 17 - - - - - - - 10.2 999.2 3.0
16/03:00am WSW 15 20 - - - - - - - 10.2 998.9 2.4
16/02:30am WSW 15 19 - - - - - - - 10.2 998.7 2.4
16/02:00am WSW 13 15 - - - - - - - 10.3 998.7 2.4
16/01:30am WSW 10 13 - - - - - - - 10.2 998.5 2.4
16/01:00am W 11 12 - - - - - - - 9.9 998.4 2.4
16/12:30am W 10 11 - - - - - - - 10.0 998.3 2.4
16/12:00am WSW 10 12 - - - - - - Recent precip. 10.0 998.4 2.4
 
Date/Time
EST
Wind Sea
Height
m
Swell Vis
km
Cloud Weather Temp
°C
Press
MSL
hPa
Rain since
9am
mm
Dir  Spd
kts
Gust
kts
Height
m
Period
s
Dir
15/11:30pm WSW 11 13 - - - - - - - 10.2 998.3 2.4
15/11:00pm WSW 9 12 - - - - - - - 10.2 998.2 1.8
15/10:30pm WSW 9 13 - - - - - - - 10.2 998.1 1.6
15/10:00pm W 9 11 - - - - - - - 9.9 998.1 1.6
15/09:30pm W 7 9 - - - - - - - 9.3 998.1 1.6
15/09:00pm WSW 12 16 - - - - - - Recent precip. 9.8 998.0 0.4
15/08:30pm WSW 5 6 - - - - - - - 10.5 998.0 0.2
15/08:00pm SW 7 11 - - - - - - - 10.4 997.9 0.2
15/07:30pm S 6 8 - - - - - - - 10.3 997.6 0.2
15/07:00pm SSE 7 9 - - - - - - - 10.2 997.6 0.2
15/06:30pm SSE 8 11 - - - - - - - 10.2 997.5 0.2
15/06:00pm S 8 12 - - - - - - - 10.3 997.3 0.2
15/05:30pm SE 6 10 - - - - - - - 10.2 996.9 0.2
15/05:00pm SE 9 13 - - - - - - - 10.4 996.7 0.2
15/04:30pm ESE 12 16 - - - - - - - 10.7 996.7 0.2
15/04:00pm SE 12 15 - - - - - - - 10.8 996.6 0.0
15/03:30pm SE 11 16 - - - - - - - 11.7 996.6 0.0
15/03:00pm SE 11 15 - - - - - - - 12.0 996.7 0.0
15/02:30pm SE 11 15 - - - - - - - 12.5 996.7 0.0
15/02:00pm ESE 13 17 - - - - - - - 12.9 996.7 0.0
15/01:30pm ESE 11 14 - - - - - - - 12.8 997.0 0.0
15/01:00pm ESE 13 16 - - - - - - - 12.9 997.3 0.0
15/12:30pm ESE 13 15 - - - - - - - 12.6 997.9 0.0
15/12:00pm ESE 15 19 - - - - - - - 13.4 998.1 0.0
15/11:30am ESE 20 23 - - - - - - - 13.1 998.4 0.0
15/11:00am E 18 22 - - - - - - - 13.1 998.5 0.0
15/10:30am ESE 16 20 - - - - - - - 12.3 998.9 0.0
15/10:00am E 17 21 - - - - - - - 12.2 999.3 0.0
15/09:30am E 16 22 - - - - - - - 12.2 999.4 0.0
15/09:00am E 17 23 - - - - - - - 11.9 999.6 10.8
15/08:30am E 18 24 - - - - - - - 11.7 999.5 10.8
15/08:00am E 15 23 - - - - - - - 11.5 999.8 10.8
15/07:30am E 13 17 - - - - - - - 11.2 999.9 10.8
15/07:00am E 15 19 - - - - - - - 11.2 1000.0 10.6
15/06:30am E 11 15 - - - - - - - 11.1 999.9 10.4
15/06:00am E 16 20 - - - - - - Recent precip. 10.9 1000.0 10.4
15/05:30am ENE 14 25 - - - - - - - 10.9 1000.2 10.2
15/05:21am E 15 25 - - - - - - - 10.9 1000.2 10.2
15/05:00am ENE 9 14 - - - - - - - 10.1 1000.3 10.2
15/04:30am ENE 13 18 - - - - - - - 10.6 1000.3 10.0
15/04:00am ENE 19 24 - - - - - - - 11.3 1000.2 9.6
15/03:30am E 20 24 - - - - - - - 11.4 1000.0 9.6
15/03:00am ENE 19 26 - - - - - - - 11.4 1000.3 9.6
15/02:30am E 22 29 - - - - - - - 11.5 1000.4 9.6
15/02:00am E 23 29 - - - - - - - 11.7 1000.8 9.6
15/01:31am ENE 23 33 - - - - - - - 11.7 1000.7 9.6
15/01:30am ENE 23 31 - - - - - - - 11.7 1000.8 9.6
15/01:00am E 24 32 - - - - - - - 11.9 1000.8 9.6
15/12:30am E 22 30 - - - - - - - 11.9 1001.2 9.6
15/12:00am E 22 29 - - - - - - - 12.0 1001.4 9.6
 
Date/Time
EST
Wind Sea
Height
m
Swell Vis
km
Cloud Weather Temp
°C
Press
MSL
hPa
Rain since
9am
mm
Dir  Spd
kts
Gust
kts
Height
m
Period
s
Dir
14/11:30pm E 20 29 - - - - - - - 12.1 1001.8 9.6
14/11:20pm E 19 29 - - - - - - - 12.2 1001.8 9.6
14/11:00pm E 18 27 - - - - - - - 11.9 1001.9 9.6
14/10:46pm E 19 29 - - - - - - - 12.0 1001.9 9.6
14/10:30pm E 18 26 - - - - - - - 11.9 1001.9 9.6
14/10:20pm E 15 25 - - - - - - - 11.9 1002.1 9.6
14/10:00pm ENE 15 23 - - - - - - - 11.5 1002.3 9.6
14/09:30pm E 16 22 - - - - - - - 11.6 1002.2 9.6
14/09:00pm E 15 21 - - - - - - - 12.1 1001.9 9.6
14/08:39pm E 15 25 - - - - - - - 11.9 1002.1 9.6
14/08:30pm ENE 15 22 - - - - - - - 11.9 1002.1 9.6
14/08:00pm ENE 16 27 - - - - - - - 11.7 1001.9 9.6
14/07:30pm E 13 18 - - - - - - - 12.3 1002.0 8.6
14/07:00pm E 19 26 - - - - - - - 12.2 1002.0 8.6
14/06:47pm E 19 31 - - - - - - - 12.3 1001.8 8.6
14/06:30pm E 21 29 - - - - - - - 12.0 1001.7 8.6
14/06:00pm ESE 21 27 - - - - - - - 11.8 1001.6 8.6
14/05:30pm ESE 26 33 - - - - - - - 11.9 1001.6 8.6
14/05:00pm ESE 19 24 - - - - - - - 12.1 1001.4 8.6
14/04:30pm ESE 22 29 - - - - - - - 12.1 1001.4 8.6
14/04:00pm ESE 18 23 - - - - - - - 12.1 1001.5 8.6
14/03:30pm ESE 17 22 - - - - - - - 12.2 1001.7 8.6
14/03:00pm ESE 19 24 - - - - - - - 12.2 1001.9 8.6
14/02:30pm ESE 20 25 - - - - - - - 12.2 1002.1 8.6
14/02:00pm ESE 22 27 - - - - - - - 12.1 1001.9 8.6
14/01:30pm E 25 32 - - - - - - - 12.1 1001.9 8.6
14/01:00pm E 26 33 - - - - - - - 12.3 1002.2 8.6
14/12:37pm ESE 27 37 - - - - - - - 12.0 1002.7 8.6
14/12:30pm ESE 30 39 - - - - - - - 12.0 1002.6 8.6
14/12:02pm ESE 29 39 - - - - - - - 12.0 1002.6 8.2
14/12:00pm ESE 30 39 - - - - - - Rain 12.0 1002.6 8.2
14/11:30am E 34 45 - - - - - - - 12.2 1002.3 7.4
14/11:26am E 35 45 - - - - - - - 12.1 1002.4 7.4
14/11:18am ESE 39 48 - - - - - - - 11.8 1001.9 7.4
14/11:11am ESE 35 48 - - - - - - - 11.5 1001.6 7.0
14/11:00am ESE 31 45 - - - - - - - 11.3 1002.3 6.4
14/10:30am SE 32 47 - - - - - - - 11.2 1002.7 4.2
14/10:00am SE 33 44 - - - - - - - 11.1 1003.6 2.4
14/09:30am ESE 35 48 - - - - - - - 11.0 1003.9 1.2
14/09:00am SE 33 48 - - - - - - Recent precip. 10.8 1004.7 21.6
14/08:30am ESE 32 46 - - - - - - - 10.8 1005.2 21.0
14/08:00am SE 31 46 - - - - - - - 10.7 1006.0 19.6
14/07:30am SE 32 47 - - - - - - - 10.6 1006.3 19.0
14/07:00am SE 30 46 - - - - - - - 10.4 1006.6 18.0
14/06:30am SE 31 43 - - - - - - - 10.3 1006.9 16.6
14/06:00am SE 29 43 - - - - - - Rain 10.4 1007.3 14.8
14/05:30am SE 29 42 - - - - - - - 10.4 1007.9 12.8
14/05:00am SE 27 40 - - - - - - - 10.7 1008.2 11.0
14/04:30am ESE 30 42 - - - - - - - 10.7 1008.6 10.4
14/04:04am ESE 31 41 - - - - - - - 10.7 1008.9 9.8
14/04:00am ESE 32 40 - - - - - - - 10.7 1009.1 9.6
14/03:30am ESE 31 41 - - - - - - - 10.8 1009.5 9.0
14/03:01am ESE 33 43 - - - - - - - 10.7 1009.6 8.4
14/03:00am ESE 33 41 - - - - - - Rain 10.8 1009.7 8.4
14/02:30am ESE 29 39 - - - - - - - 10.8 1010.6 7.8
14/02:00am ESE 29 36 - - - - - - - 10.9 1011.1 6.8
14/01:40am ESE 29 39 - - - - - - - 11.0 1011.5 6.2
14/01:30am ESE 29 34 - - - - - - - 11.0 1011.7 6.2
14/01:16am ESE 24 35 - - - - - - - 11.1 1012.3 6.2
14/01:00am ESE 27 32 - - - - - - - 11.0 1012.5 6.2
14/12:30am ESE 28 35 - - - - - - - 11.1 1012.8 6.2
14/12:00am ESE 26 31 - - - - - - Recent precip. 11.2 1012.9 5.8
 
Date/Time
EST
Wind Sea
Height
m
Swell Vis
km
Cloud Weather Temp
°C
Press
MSL
hPa
Rain since
9am
mm
Dir  Spd
kts
Gust
kts
Height
m
Period
s
Dir
13/11:30pm ESE 24 31 - - - - - - - 11.3 1013.5 5.8
13/11:00pm ESE 23 29 - - - - - - - 11.4 1013.9 5.6
13/10:30pm ESE 24 31 - - - - - - - 11.4 1014.2 5.6
13/10:25pm ESE 21 31 - - - - - - - 11.4 1014.3 5.4
13/10:00pm ESE 22 27 - - - - - - - 11.5 1014.5 5.4
13/09:30pm E 21 26 - - - - - - - 11.6 1014.8 5.4
13/09:00pm ESE 21 26 - - - - - - - 11.6 1015.1 5.2
13/08:30pm ESE 20 23 - - - - - - - 11.7 1015.1 5.2
13/08:00pm E 17 22 - - - - - - - 11.6 1015.3 5.2
13/07:30pm ESE 20 25 - - - - - - - 11.7 1015.1 5.2
13/07:00pm E 13 16 - - - - - - - 11.4 1015.7 3.8
13/06:30pm ESE 13 16 - - - - - - - 11.6 1015.6 3.8
13/06:00pm ESE 13 15 - - - - - - Recent precip. 11.6 1015.6 3.6
13/05:30pm ESE 12 15 - - - - - - - 11.6 1015.6 3.6
13/05:00pm ESE 14 17 - - - - - - - 11.5 1015.7 3.4
13/04:30pm ESE 13 15 - - - - - - - 11.7 1015.8 3.2

Other formats

Comma delimited format used in spreadsheet applications
http://www.bom.gov.au/fwo/IDT60701/IDT60701.95967.axf

JavaScript Object Notation format (JSON) in row-major order
http://www.bom.gov.au/fwo/IDT60701/IDT60701.95967.json

Data quality

Most of these data are generated automatically and are frequently updated. Quality checks on data are not normally performed. It is possible for incorrect values to appear. Refer to information at About Latest Weather Observations and please check the disclaimer before using these data.